createdAt,value
2022-11-15T00:00:04.785Z,31.63
2022-11-15T00:01:25.352Z,29.73
2022-11-15T00:02:46.247Z,32.57
2022-11-15T00:04:07.307Z,28.83
2022-11-15T00:05:28.095Z,31.03
2022-11-15T00:06:49.296Z,32.53
2022-11-15T00:08:10.745Z,29.07
2022-11-15T00:09:31.734Z,31.83
2022-11-15T00:10:57.233Z,33.00
2022-11-15T00:12:18.098Z,32.73
2022-11-15T00:13:38.771Z,29.23
2022-11-15T00:14:59.463Z,31.00
2022-11-15T00:16:20.149Z,30.00
2022-11-15T00:17:40.723Z,32.57
2022-11-15T00:19:01.405Z,30.87
2022-11-15T00:20:22.047Z,35.23
2022-11-15T00:21:42.721Z,32.50
2022-11-15T00:23:07.459Z,30.40
2022-11-15T00:24:28.146Z,31.13
2022-11-15T00:25:57.545Z,31.67
2022-11-15T00:27:18.588Z,33.83
2022-11-15T00:28:39.775Z,32.03
2022-11-15T00:30:00.536Z,33.30
2022-11-15T00:31:21.320Z,32.50
2022-11-15T00:32:49.433Z,32.23
2022-11-15T00:34:11.781Z,32.73
2022-11-15T00:35:34.579Z,33.00
2022-11-15T00:36:55.359Z,32.53
2022-11-15T00:38:16.458Z,31.77
2022-11-15T00:39:36.976Z,31.57
2022-11-15T00:40:57.623Z,34.97
2022-11-15T00:42:18.389Z,33.97
2022-11-15T00:43:41.200Z,31.93
2022-11-15T00:45:02.671Z,32.87
2022-11-15T00:46:23.678Z,35.30
2022-11-15T00:47:47.854Z,30.83
2022-11-15T00:49:08.793Z,32.70
2022-11-15T00:50:29.630Z,34.43
2022-11-15T00:51:50.569Z,35.30
2022-11-15T00:53:11.475Z,32.50
2022-11-15T00:54:32.220Z,34.60
2022-11-15T00:55:53.076Z,34.07
2022-11-15T00:57:14.251Z,35.17
2022-11-15T00:58:34.997Z,33.00
2022-11-15T00:59:55.709Z,35.00
2022-11-15T01:01:16.664Z,35.10
2022-11-15T01:02:37.658Z,33.33
2022-11-15T01:04:01.306Z,33.37
2022-11-15T01:05:23.013Z,35.60
2022-11-15T01:06:43.720Z,32.77
2022-11-15T01:08:05.136Z,34.03
2022-11-15T01:09:25.956Z,36.47
2022-11-15T01:10:46.703Z,31.53
2022-11-15T01:12:07.273Z,34.67
2022-11-15T01:13:32.128Z,37.17
2022-11-15T01:14:53.370Z,36.13
2022-11-15T01:16:19.423Z,33.60
2022-11-15T01:17:40.178Z,34.13
2022-11-15T01:19:02.342Z,32.87
2022-11-15T01:20:23.206Z,33.33
2022-11-15T01:21:44.236Z,36.87
2022-11-15T01:23:05.153Z,36.37
2022-11-15T01:24:26.008Z,33.60
2022-11-15T01:25:47.020Z,34.07
2022-11-15T01:27:07.638Z,35.67
2022-11-15T01:28:38.922Z,36.63
2022-11-15T01:29:59.801Z,37.07
2022-11-15T01:31:22.018Z,34.13
2022-11-15T01:32:42.850Z,35.43
2022-11-15T01:34:03.516Z,35.20
2022-11-15T01:35:24.861Z,35.13
2022-11-15T01:36:45.477Z,36.40
2022-11-15T01:38:06.187Z,35.97
2022-11-15T01:39:27.692Z,35.30
2022-11-15T01:40:49.260Z,34.33
2022-11-15T01:42:14.770Z,36.70
2022-11-15T01:43:37.778Z,35.87
2022-11-15T01:44:58.767Z,34.70
2022-11-15T01:46:32.932Z,36.13
2022-11-15T01:47:56.172Z,34.90
2022-11-15T01:49:20.469Z,35.87
2022-11-15T01:50:41.289Z,35.93
2022-11-15T01:52:06.049Z,38.57
2022-11-15T01:53:29.026Z,35.27
2022-11-15T01:54:55.056Z,37.60
2022-11-15T01:56:25.980Z,35.83
2022-11-15T01:57:49.383Z,36.03
2022-11-15T01:59:11.843Z,35.20
2022-11-15T02:00:35.193Z,36.70
2022-11-15T02:01:56.682Z,35.80
2022-11-15T02:03:17.759Z,37.87
2022-11-15T02:04:47.105Z,39.17
2022-11-15T02:06:08.631Z,36.87
2022-11-15T02:07:31.678Z,37.07
2022-11-15T02:08:52.914Z,35.63
2022-11-15T02:10:22.751Z,35.20
2022-11-15T02:11:45.089Z,35.03
2022-11-15T02:13:06.070Z,34.50
2022-11-15T02:14:28.644Z,36.43
2022-11-15T02:16:28.013Z,33.87
2022-11-15T02:18:09.243Z,34.20
2022-11-15T02:20:03.058Z,35.63
2022-11-15T02:21:40.631Z,34.70
2022-11-15T02:23:22.463Z,36.13
2022-11-15T02:24:46.182Z,39.33
2022-11-15T02:26:13.015Z,36.13
2022-11-15T02:28:12.755Z,38.23
2022-11-15T02:29:54.823Z,37.87
2022-11-15T02:31:27.212Z,35.23
2022-11-15T02:33:12.541Z,36.43
2022-11-15T02:34:39.037Z,36.10
2022-11-15T02:36:13.293Z,37.03
2022-11-15T02:37:56.837Z,34.80
2022-11-15T02:39:39.681Z,38.43
2022-11-15T02:41:05.885Z,38.97
2022-11-15T02:42:49.683Z,36.13
2022-11-15T02:44:25.637Z,36.33
2022-11-15T02:45:52.224Z,35.23
2022-11-15T02:47:17.810Z,37.97
2022-11-15T02:48:40.033Z,36.13
2022-11-15T02:50:10.039Z,35.80
2022-11-15T02:51:30.608Z,39.17
2022-11-15T02:52:52.123Z,36.53
2022-11-15T02:54:24.656Z,35.83
2022-11-15T02:56:05.821Z,35.43
2022-11-15T02:57:50.774Z,36.20
2022-11-15T02:59:29.196Z,35.73
2022-11-15T03:00:58.870Z,35.57
2022-11-15T03:02:44.442Z,36.23
2022-11-15T03:04:35.851Z,36.70
2022-11-15T03:06:27.436Z,35.23
2022-11-15T03:08:03.603Z,37.33
2022-11-15T03:09:46.174Z,35.07
2022-11-15T03:11:10.146Z,34.10
2022-11-15T03:12:44.295Z,38.03
2022-11-15T03:14:23.727Z,37.57
2022-11-15T03:15:55.619Z,37.67
2022-11-15T03:17:23.770Z,35.60
2022-11-15T03:18:54.871Z,36.93
2022-11-15T03:20:17.961Z,37.10
2022-11-15T03:21:41.961Z,34.60
2022-11-15T03:23:06.581Z,36.60
2022-11-15T03:24:34.068Z,35.67
2022-11-15T03:25:57.304Z,38.67
2022-11-15T03:27:23.655Z,39.60
2022-11-15T03:29:00.160Z,40.07
2022-11-15T03:30:21.533Z,38.50
2022-11-15T03:31:50.502Z,35.77
2022-11-15T03:33:12.776Z,35.33
2022-11-15T03:34:40.432Z,36.30
2022-11-15T03:36:04.395Z,40.13
2022-11-15T03:37:34.191Z,35.23
2022-11-15T03:38:59.480Z,36.03
2022-11-15T03:40:27.544Z,37.90
2022-11-15T03:42:14.793Z,36.57
2022-11-15T03:43:40.307Z,37.17
2022-11-15T03:45:03.731Z,37.27
2022-11-15T03:46:27.038Z,38.13
2022-11-15T03:47:59.152Z,35.70
2022-11-15T03:49:31.066Z,35.90
2022-11-15T03:50:52.546Z,35.50
2022-11-15T03:52:13.655Z,37.17
2022-11-15T03:53:34.353Z,35.37
2022-11-15T03:54:57.590Z,34.57
2022-11-15T03:56:21.288Z,35.57
2022-11-15T03:57:42.429Z,36.40
2022-11-15T03:59:03.272Z,37.00
2022-11-15T04:00:24.502Z,38.07
2022-11-15T04:01:44.990Z,36.43
2022-11-15T04:03:05.965Z,35.87
2022-11-15T04:04:26.648Z,34.17
2022-11-15T04:05:47.565Z,36.17
2022-11-15T04:07:08.273Z,35.90
2022-11-15T04:08:29.654Z,36.77
2022-11-15T04:10:06.106Z,34.53
2022-11-15T04:11:26.829Z,36.53
2022-11-15T04:12:48.748Z,35.40
2022-11-15T04:14:09.577Z,35.93
2022-11-15T04:15:31.062Z,35.73
2022-11-15T04:16:51.794Z,33.57
2022-11-15T04:18:14.771Z,34.93
2022-11-15T04:19:55.684Z,35.57
2022-11-15T04:21:34.647Z,34.30
2022-11-15T04:23:15.540Z,33.60
2022-11-15T04:24:36.360Z,33.67
2022-11-15T04:26:00.579Z,35.30
2022-11-15T04:27:21.434Z,32.87
2022-11-15T04:29:00.853Z,33.83
2022-11-15T04:30:21.738Z,36.03
2022-11-15T04:31:42.266Z,34.67
2022-11-15T04:33:02.858Z,35.33
2022-11-15T04:34:23.512Z,33.27
2022-11-15T04:35:44.812Z,32.80
2022-11-15T04:37:14.298Z,35.63
2022-11-15T04:38:35.579Z,33.83
2022-11-15T04:39:56.672Z,34.17
2022-11-15T04:41:17.212Z,33.57
2022-11-15T04:42:37.928Z,36.20
2022-11-15T04:43:58.863Z,33.27
2022-11-15T04:45:19.915Z,33.33
2022-11-15T04:46:40.886Z,35.27
2022-11-15T04:48:01.686Z,33.23
2022-11-15T04:49:22.725Z,32.97
2022-11-15T04:50:43.480Z,34.47
2022-11-15T04:52:04.537Z,33.30
2022-11-15T04:53:25.621Z,35.17
2022-11-15T04:54:46.333Z,35.13
2022-11-15T04:56:07.483Z,32.53
2022-11-15T04:57:28.074Z,31.80
2022-11-15T04:58:51.889Z,34.07
2022-11-15T05:00:16.676Z,35.77
2022-11-15T05:01:42.138Z,32.73
2022-11-15T05:03:24.034Z,32.20
2022-11-15T05:04:45.051Z,35.17
2022-11-15T05:06:07.055Z,35.33
2022-11-15T05:07:27.894Z,32.53
2022-11-15T05:08:49.237Z,36.17
2022-11-15T05:10:10.400Z,34.47
2022-11-15T05:11:30.962Z,35.07
2022-11-15T05:12:51.985Z,35.57
2022-11-15T05:14:13.853Z,36.00
2022-11-15T05:15:34.998Z,35.00
2022-11-15T05:16:55.940Z,33.97
2022-11-15T05:18:22.182Z,33.80
2022-11-15T05:19:45.687Z,33.93
2022-11-15T05:21:11.054Z,32.60
2022-11-15T05:22:31.670Z,34.83
2022-11-15T05:23:53.007Z,32.83
2022-11-15T05:25:13.707Z,32.67
2022-11-15T05:26:34.331Z,31.93
2022-11-15T05:27:55.572Z,33.87
2022-11-15T05:29:16.100Z,34.80
2022-11-15T05:30:37.005Z,31.20
2022-11-15T05:31:57.888Z,34.40
2022-11-15T05:33:19.802Z,33.00
2022-11-15T05:34:40.512Z,33.17
2022-11-15T05:36:07.814Z,34.80
2022-11-15T05:37:29.892Z,31.97
2022-11-15T05:38:54.278Z,32.87
2022-11-15T05:40:14.838Z,34.50
2022-11-15T05:41:40.510Z,31.23
2022-11-15T05:43:03.169Z,32.50
2022-11-15T05:44:24.666Z,32.57
2022-11-15T05:45:48.212Z,33.23
2022-11-15T05:47:12.464Z,32.97
2022-11-15T05:48:37.099Z,34.70
2022-11-15T05:49:58.858Z,30.43
2022-11-15T05:51:23.791Z,34.97
2022-11-15T05:52:47.042Z,32.57
2022-11-15T05:54:07.936Z,33.53
2022-11-15T05:55:29.329Z,34.03
2022-11-15T05:56:50.369Z,31.17
2022-11-15T05:58:11.209Z,32.57
2022-11-15T05:59:33.538Z,32.17
2022-11-15T06:00:55.415Z,32.47
2022-11-15T06:02:16.197Z,32.97
2022-11-15T06:03:37.080Z,34.53
2022-11-15T06:04:57.680Z,34.67
2022-11-15T06:06:18.307Z,32.70
2022-11-15T06:07:39.572Z,31.60
2022-11-15T06:09:00.250Z,32.50
2022-11-15T06:10:21.090Z,33.60
2022-11-15T06:11:41.546Z,32.47
2022-11-15T06:13:04.726Z,34.77
2022-11-15T06:14:25.724Z,33.37
2022-11-15T06:15:46.471Z,31.77
2022-11-15T06:17:11.293Z,31.10
2022-11-15T06:18:36.056Z,31.20
2022-11-15T06:19:56.947Z,32.97
2022-11-15T06:21:17.390Z,31.43
2022-11-15T06:22:38.475Z,31.27
2022-11-15T06:23:58.927Z,30.90
2022-11-15T06:25:19.855Z,33.87
2022-11-15T06:26:40.492Z,33.50
2022-11-15T06:28:03.670Z,32.53
2022-11-15T06:29:24.551Z,36.17
2022-11-15T06:30:47.972Z,33.90
2022-11-15T06:32:12.849Z,30.93
2022-11-15T06:33:34.151Z,31.67
2022-11-15T06:34:55.444Z,34.43
2022-11-15T06:36:18.225Z,32.33
2022-11-15T06:37:39.262Z,30.83
2022-11-15T06:39:00.273Z,32.43
2022-11-15T06:40:20.799Z,32.60
2022-11-15T06:41:41.234Z,31.63
2022-11-15T06:43:03.475Z,32.40
2022-11-15T06:44:24.076Z,34.37
2022-11-15T06:45:44.957Z,31.83
2022-11-15T06:47:05.726Z,32.97
2022-11-15T06:48:27.121Z,31.70
2022-11-15T06:49:47.828Z,30.90
2022-11-15T06:51:09.609Z,31.23
2022-11-15T06:52:33.611Z,31.10
2022-11-15T06:53:54.085Z,29.37
2022-11-15T06:55:15.041Z,32.57
2022-11-15T06:56:35.736Z,33.63
2022-11-15T06:57:56.516Z,31.03
2022-11-15T06:59:17.072Z,31.07
2022-11-15T07:00:37.659Z,30.43
2022-11-15T07:01:58.329Z,31.47
2022-11-15T07:03:22.259Z,32.30
2022-11-15T07:04:43.169Z,31.37
2022-11-15T07:06:07.552Z,32.77
2022-11-15T07:07:28.788Z,30.97
2022-11-15T07:08:49.913Z,34.77
2022-11-15T07:10:11.083Z,31.40
2022-11-15T07:11:31.650Z,33.40
2022-11-15T07:12:53.859Z,31.23
2022-11-15T07:14:14.578Z,30.57
2022-11-15T07:15:35.678Z,33.90
2022-11-15T07:16:56.368Z,30.63
2022-11-15T07:18:17.388Z,31.70
2022-11-15T07:19:38.086Z,30.77
2022-11-15T07:21:02.990Z,31.80
2022-11-15T07:22:23.601Z,31.33
2022-11-15T07:23:44.561Z,31.40
2022-11-15T07:25:05.406Z,30.97
2022-11-15T07:26:26.443Z,29.40
2022-11-15T07:27:55.588Z,30.73
2022-11-15T07:29:16.803Z,31.17
2022-11-15T07:30:40.004Z,29.43
2022-11-15T07:32:04.823Z,32.23
2022-11-15T07:33:25.260Z,33.33
2022-11-15T07:34:47.660Z,30.97
2022-11-15T07:36:09.036Z,31.50
2022-11-15T07:37:30.172Z,30.33
2022-11-15T07:38:51.303Z,28.87
2022-11-15T07:40:12.958Z,31.90
2022-11-15T07:41:33.461Z,29.50
2022-11-15T07:43:03.869Z,30.83
2022-11-15T07:44:24.570Z,31.83
2022-11-15T07:45:46.595Z,29.53
2022-11-15T07:47:07.132Z,31.00
2022-11-15T07:48:42.230Z,30.80
2022-11-15T07:50:03.981Z,30.43
2022-11-15T07:51:24.556Z,28.27
2022-11-15T07:52:46.731Z,30.00
2022-11-15T07:54:07.424Z,30.37
2022-11-15T07:55:31.127Z,29.80
2022-11-15T07:56:51.856Z,30.00
2022-11-15T07:58:13.582Z,30.50
2022-11-15T07:59:38.669Z,32.23
2022-11-15T08:00:59.679Z,29.20
2022-11-15T08:02:20.666Z,28.20
2022-11-15T08:03:42.515Z,30.73
2022-11-15T08:05:04.203Z,29.57
2022-11-15T08:06:24.999Z,29.07
2022-11-15T08:07:45.819Z,30.07
2022-11-15T08:09:06.642Z,29.63
2022-11-15T08:10:28.633Z,29.60
2022-11-15T08:11:49.179Z,28.53
2022-11-15T08:13:11.805Z,32.37
2022-11-15T08:14:32.876Z,30.97
2022-11-15T08:15:58.827Z,29.57
2022-11-15T08:17:19.513Z,29.57
2022-11-15T08:18:40.334Z,31.03
2022-11-15T08:20:01.067Z,28.30
2022-11-15T08:21:22.436Z,32.07
2022-11-15T08:22:43.448Z,27.80
2022-11-15T08:24:04.827Z,30.23
2022-11-15T08:25:27.673Z,29.30
2022-11-15T08:26:49.613Z,29.20
2022-11-15T08:28:11.502Z,30.07
2022-11-15T08:29:32.418Z,30.87
2022-11-15T08:30:53.281Z,30.27
2022-11-15T08:32:13.822Z,34.20
2022-11-15T08:33:36.570Z,31.70
2022-11-15T08:34:56.921Z,32.27
2022-11-15T08:36:18.941Z,30.30
2022-11-15T08:37:42.284Z,32.97
2022-11-15T08:39:03.330Z,32.50
2022-11-15T08:40:24.320Z,32.07
2022-11-15T08:41:45.785Z,29.30
2022-11-15T08:43:06.761Z,27.30
2022-11-15T08:44:27.182Z,27.53
2022-11-15T08:45:47.906Z,26.40
2022-11-15T08:47:09.746Z,27.00
2022-11-15T08:48:30.900Z,26.63
2022-11-15T08:49:51.949Z,26.63
2022-11-15T08:51:12.604Z,29.17
2022-11-15T08:52:33.501Z,30.50
2022-11-15T08:53:54.349Z,27.63
2022-11-15T08:55:17.558Z,26.43
2022-11-15T08:56:38.550Z,29.13
2022-11-15T08:57:59.497Z,25.67
2022-11-15T08:59:20.479Z,24.57
2022-11-15T09:00:41.066Z,25.03
2022-11-15T09:02:02.510Z,23.20
2022-11-15T09:03:23.552Z,22.97
2022-11-15T09:04:45.289Z,24.33
2022-11-15T09:06:06.112Z,24.80
2022-11-15T09:07:27.352Z,23.73
2022-11-15T09:08:49.334Z,25.47
2022-11-15T09:10:10.974Z,24.07
2022-11-15T09:11:32.001Z,25.00
2022-11-15T09:12:53.048Z,24.87
2022-11-15T09:14:14.939Z,24.17
2022-11-15T09:15:35.900Z,23.67
2022-11-15T09:16:56.627Z,24.50
2022-11-15T09:18:17.287Z,23.43
2022-11-15T09:19:38.611Z,21.90
2022-11-15T09:21:00.834Z,23.50
2022-11-15T09:22:22.266Z,23.73
2022-11-15T09:23:43.322Z,21.02
2022-11-15T09:25:08.524Z,22.13
2022-11-15T09:26:30.718Z,19.85
2022-11-15T09:27:51.664Z,21.60
2022-11-15T09:29:13.480Z,20.30
2022-11-15T09:30:35.013Z,20.98
2022-11-15T09:31:55.816Z,22.40
2022-11-15T09:33:16.943Z,22.05
2022-11-15T09:34:37.683Z,20.80
2022-11-15T09:36:08.957Z,21.00
2022-11-15T09:37:29.937Z,24.08
2022-11-15T09:38:50.447Z,22.13
2022-11-15T09:40:17.392Z,21.92
2022-11-15T09:42:03.288Z,19.65
2022-11-15T09:43:38.274Z,21.77
2022-11-15T09:45:18.900Z,19.98
2022-11-15T09:46:54.694Z,20.08
2022-11-15T09:48:09.265Z,21.58
2022-11-15T09:49:37.303Z,21.80
2022-11-15T09:50:51.533Z,20.92
2022-11-15T09:51:55.328Z,20.73
2022-11-15T09:52:57.540Z,22.38
2022-11-15T09:54:45.632Z,22.48
2022-11-15T09:55:42.066Z,21.58
2022-11-15T09:56:48.148Z,21.48
2022-11-15T09:58:05.212Z,23.10
2022-11-15T09:59:13.426Z,22.35
2022-11-15T10:00:45.500Z,20.90
2022-11-15T10:01:49.790Z,22.15
2022-11-15T10:03:04.615Z,22.73
2022-11-15T10:04:10.805Z,21.83
2022-11-15T10:05:20.149Z,20.55
2022-11-15T10:06:28.588Z,23.63
2022-11-15T10:07:58.499Z,20.63
2022-11-15T10:09:15.018Z,23.08
2022-11-15T10:10:28.573Z,24.00
2022-11-15T10:11:38.714Z,23.50
2022-11-15T10:12:46.776Z,20.25
2022-11-15T10:13:51.452Z,21.40
2022-11-15T10:15:02.793Z,21.42
2022-11-15T10:16:20.294Z,21.13
2022-11-15T10:17:28.787Z,21.73
2022-11-15T10:18:42.197Z,22.27
2022-11-15T10:20:06.009Z,20.83
2022-11-15T10:21:20.673Z,21.20
2022-11-15T10:22:30.491Z,22.58
2022-11-15T10:23:33.038Z,21.15
2022-11-15T10:24:40.441Z,21.48
2022-11-15T10:25:42.766Z,21.40
2022-11-15T10:26:49.464Z,23.05
2022-11-15T10:27:56.002Z,20.83
2022-11-15T10:28:58.271Z,20.98
2022-11-15T10:30:00.501Z,20.17
2022-11-15T10:31:06.551Z,22.50
2022-11-15T10:32:08.949Z,21.45
2022-11-15T10:33:36.636Z,19.92
2022-11-15T10:34:38.977Z,22.67
2022-11-15T10:35:41.319Z,20.80
2022-11-15T10:36:50.230Z,21.50
2022-11-15T10:37:53.008Z,20.55
2022-11-15T10:39:05.540Z,21.10
2022-11-15T10:40:17.761Z,22.25
2022-11-15T10:41:21.709Z,19.88
2022-11-15T10:42:29.091Z,21.67
2022-11-15T10:43:31.486Z,22.90
2022-11-15T10:44:44.151Z,19.13
2022-11-15T10:45:48.357Z,21.65
2022-11-15T10:46:56.418Z,20.00
2022-11-15T10:48:14.029Z,22.52
2022-11-15T10:49:18.249Z,22.25
2022-11-15T10:50:32.917Z,21.13
2022-11-15T10:51:43.093Z,20.50
2022-11-15T10:52:48.874Z,20.05
2022-11-15T10:53:53.559Z,20.27
2022-11-15T10:55:10.601Z,22.00
2022-11-15T10:56:16.798Z,19.65
2022-11-15T10:57:22.901Z,20.40
2022-11-15T10:58:42.767Z,18.98
2022-11-15T11:00:05.367Z,19.27
2022-11-15T11:01:14.290Z,21.42
2022-11-15T11:02:36.821Z,19.50
2022-11-15T11:03:40.471Z,21.33
2022-11-15T11:04:52.766Z,20.75
2022-11-15T11:06:08.726Z,18.85
2022-11-15T11:07:23.394Z,19.42
2022-11-15T11:08:25.820Z,19.25
2022-11-15T11:09:40.167Z,19.85
2022-11-15T11:11:03.010Z,19.10
2022-11-15T11:12:11.104Z,19.50
2022-11-15T11:13:15.511Z,19.23
2022-11-15T11:14:39.053Z,18.95
2022-11-15T11:15:46.289Z,18.73
2022-11-15T11:17:03.787Z,22.10
2022-11-15T11:18:18.862Z,20.08
2022-11-15T11:19:36.058Z,24.77
2022-11-15T11:20:44.965Z,20.08
2022-11-15T11:22:19.163Z,19.40
2022-11-15T11:23:50.615Z,19.33
2022-11-15T11:24:58.153Z,18.67
2022-11-15T11:26:30.739Z,19.30
2022-11-15T11:27:52.464Z,19.17
2022-11-15T11:29:09.855Z,19.27
2022-11-15T11:30:22.942Z,20.02
2022-11-15T11:31:48.675Z,17.55
2022-11-15T11:33:02.829Z,18.13
2022-11-15T11:34:23.749Z,20.20
2022-11-15T11:35:35.334Z,17.95
2022-11-15T11:36:54.417Z,19.90
2022-11-15T11:38:21.532Z,19.55
2022-11-15T11:39:57.706Z,19.02
2022-11-15T11:41:37.883Z,21.52
2022-11-15T11:43:00.567Z,19.23
2022-11-15T11:44:47.962Z,19.33
2022-11-15T11:46:05.279Z,18.40
2022-11-15T11:47:10.808Z,19.50
2022-11-15T11:48:24.190Z,19.98
2022-11-15T11:49:34.231Z,19.80
2022-11-15T11:50:39.536Z,18.13
2022-11-15T11:52:02.608Z,19.65
2022-11-15T11:53:13.818Z,18.95
2022-11-15T11:54:51.269Z,20.83
2022-11-15T11:56:02.786Z,20.75
2022-11-15T11:57:14.164Z,20.13
2022-11-15T11:58:27.323Z,19.85
2022-11-15T11:59:45.995Z,19.30
2022-11-15T12:00:53.359Z,21.65
2022-11-15T12:01:55.887Z,18.40
2022-11-15T12:03:18.613Z,17.50
2022-11-15T12:04:47.044Z,18.08
2022-11-15T12:06:06.190Z,18.73
2022-11-15T12:07:14.560Z,19.80
2022-11-15T12:08:27.921Z,19.20
2022-11-15T12:09:30.845Z,18.38
2022-11-15T12:10:35.669Z,16.42
2022-11-15T12:12:05.766Z,19.45
2022-11-15T12:13:25.551Z,18.25
2022-11-15T12:14:33.357Z,19.70
2022-11-15T12:15:49.359Z,19.30
2022-11-15T12:16:52.168Z,18.65
2022-11-15T12:17:57.983Z,19.35
2022-11-15T12:19:05.778Z,19.40
2022-11-15T12:20:16.397Z,18.88
2022-11-15T12:21:40.609Z,17.33
2022-11-15T12:22:48.445Z,18.05
2022-11-15T12:23:56.831Z,18.95
2022-11-15T12:25:29.302Z,17.70
2022-11-15T12:27:05.592Z,17.00
2022-11-15T12:28:18.891Z,18.92
2022-11-15T12:29:32.136Z,16.50
2022-11-15T12:30:52.782Z,17.95
2022-11-15T12:31:58.054Z,19.52
2022-11-15T12:33:02.432Z,17.02
2022-11-15T12:34:29.546Z,19.58
2022-11-15T12:35:35.995Z,18.95
2022-11-15T12:36:43.868Z,20.13
2022-11-15T12:37:51.660Z,17.55
2022-11-15T12:39:13.594Z,19.80
2022-11-15T12:40:27.353Z,19.38
2022-11-15T12:41:32.777Z,20.00
2022-11-15T12:42:59.784Z,18.97
2022-11-15T12:44:03.649Z,20.30
2022-11-15T12:45:29.976Z,19.42
2022-11-15T12:46:34.469Z,18.33
2022-11-15T12:47:36.725Z,19.80
2022-11-15T12:48:38.954Z,19.57
2022-11-15T12:49:41.192Z,18.48
2022-11-15T12:50:55.450Z,19.08
2022-11-15T12:51:57.712Z,18.70
2022-11-15T12:53:28.776Z,18.27
2022-11-15T12:54:52.802Z,19.17
2022-11-15T12:56:07.346Z,17.37
2022-11-15T12:57:10.128Z,19.92
2022-11-15T12:58:30.469Z,17.63
2022-11-15T13:00:05.376Z,18.23
2022-11-15T13:01:09.053Z,18.63
2022-11-15T13:02:20.048Z,17.63
2022-11-15T13:03:24.946Z,18.53
2022-11-15T13:04:29.125Z,20.43
2022-11-15T13:05:31.805Z,16.77
2022-11-15T13:06:55.223Z,20.50
2022-11-15T13:07:59.674Z,17.10
2022-11-15T13:09:04.720Z,17.83
2022-11-15T13:10:12.798Z,19.80
2022-11-15T13:11:47.728Z,17.47
2022-11-15T13:12:52.525Z,17.80
2022-11-15T13:13:54.792Z,19.17
2022-11-15T13:15:19.931Z,17.93
2022-11-15T13:16:22.244Z,20.50
2022-11-15T13:17:30.848Z,20.65
2022-11-15T13:18:34.150Z,18.83
2022-11-15T13:19:38.065Z,18.15
2022-11-15T13:20:40.376Z,18.03
2022-11-15T13:22:08.922Z,17.58
2022-11-15T13:23:19.280Z,17.20
2022-11-15T13:24:21.517Z,19.17
2022-11-15T13:26:09.589Z,19.07
2022-11-15T13:27:19.615Z,18.53
2022-11-15T13:28:33.692Z,20.10
2022-11-15T13:29:36.709Z,19.17
2022-11-15T13:30:39.245Z,19.37
2022-11-15T13:31:44.281Z,18.97
2022-11-15T13:32:46.628Z,18.23
2022-11-15T13:33:49.262Z,19.80
2022-11-15T13:34:54.250Z,18.60
2022-11-15T13:35:59.930Z,18.87
2022-11-15T13:37:03.617Z,19.27
2022-11-15T13:38:06.260Z,21.02
2022-11-15T13:39:28.657Z,19.23
2022-11-15T13:40:36.917Z,19.67
2022-11-15T13:41:49.535Z,19.70
2022-11-15T13:42:52.271Z,19.43
2022-11-15T13:43:55.905Z,20.57
2022-11-15T13:45:01.162Z,20.90
2022-11-15T13:46:21.565Z,18.40
2022-11-15T13:47:28.217Z,20.10
2022-11-15T13:48:31.189Z,19.77
2022-11-15T13:49:35.142Z,19.07
2022-11-15T13:50:40.248Z,19.13
2022-11-15T13:51:52.635Z,18.43
2022-11-15T13:53:00.310Z,18.83
2022-11-15T13:54:14.498Z,19.13
2022-11-15T13:55:23.452Z,17.87
2022-11-15T13:56:28.659Z,19.07
2022-11-15T13:57:46.161Z,18.67
2022-11-15T13:58:49.423Z,19.97
2022-11-15T13:59:58.652Z,19.27
2022-11-15T14:01:06.776Z,19.30
2022-11-15T14:02:21.302Z,18.90
2022-11-15T14:03:29.037Z,21.50
2022-11-15T14:04:34.908Z,18.43
2022-11-15T14:05:39.187Z,19.83
2022-11-15T14:06:51.844Z,20.63
2022-11-15T14:08:23.834Z,19.37
2022-11-15T14:09:39.873Z,19.03
2022-11-15T14:10:42.412Z,19.17
2022-11-15T14:11:53.046Z,19.73
2022-11-15T14:12:55.339Z,20.67
2022-11-15T14:14:09.576Z,17.27
2022-11-15T14:15:32.773Z,18.17
2022-11-15T14:16:40.926Z,17.50
2022-11-15T14:17:49.793Z,21.03
2022-11-15T14:18:56.651Z,19.33
2022-11-15T14:19:59.230Z,18.80
2022-11-15T14:21:09.053Z,20.63
2022-11-15T14:22:21.389Z,18.77
2022-11-15T14:23:28.684Z,17.63
2022-11-15T14:24:35.213Z,21.33
2022-11-15T14:25:37.544Z,17.23
2022-11-15T14:26:39.861Z,18.00
2022-11-15T14:27:44.596Z,19.67
2022-11-15T14:28:47.111Z,17.87
2022-11-15T14:29:50.047Z,17.67
2022-11-15T14:30:55.187Z,18.97
2022-11-15T14:32:15.588Z,19.07
2022-11-15T14:33:44.380Z,20.97
2022-11-15T14:34:48.408Z,19.30
2022-11-15T14:35:52.052Z,19.23
2022-11-15T14:36:54.277Z,20.37
2022-11-15T14:37:56.691Z,21.17
2022-11-15T14:38:59.194Z,18.67
2022-11-15T14:40:03.610Z,19.37
2022-11-15T14:41:06.855Z,20.77
2022-11-15T14:42:10.795Z,19.13
2022-11-15T14:43:14.484Z,18.97
2022-11-15T14:44:19.613Z,18.73
2022-11-15T14:45:23.275Z,18.70
2022-11-15T14:46:25.503Z,19.37
2022-11-15T14:47:27.701Z,20.30
2022-11-15T14:48:30.434Z,20.40
2022-11-15T14:49:33.210Z,20.17
2022-11-15T14:50:36.372Z,18.47
2022-11-15T14:51:38.638Z,20.23
2022-11-15T14:52:41.397Z,20.17
2022-11-15T14:53:45.023Z,17.97
2022-11-15T14:54:47.270Z,18.10
2022-11-15T14:55:50.223Z,18.67
2022-11-15T14:56:52.549Z,18.27
2022-11-15T14:57:55.239Z,19.13
2022-11-15T14:58:57.589Z,19.13
2022-11-15T14:59:59.755Z,17.93
2022-11-15T15:01:24.070Z,18.07
2022-11-15T15:02:28.039Z,18.00
2022-11-15T15:03:30.399Z,18.20
2022-11-15T15:04:32.622Z,19.27
2022-11-15T15:05:38.440Z,18.33
2022-11-15T15:06:40.931Z,17.03
2022-11-15T15:07:43.690Z,19.67
2022-11-15T15:08:47.182Z,18.03
2022-11-15T15:09:49.538Z,18.77
2022-11-15T15:10:51.808Z,18.20
2022-11-15T15:11:55.796Z,18.90
2022-11-15T15:12:58.130Z,19.37
2022-11-15T15:14:02.393Z,18.07
2022-11-15T15:15:07.765Z,19.20
2022-11-15T15:16:10.123Z,18.50
2022-11-15T15:17:12.544Z,20.50
2022-11-15T15:18:14.952Z,18.83
2022-11-15T15:19:19.468Z,18.90
2022-11-15T15:20:21.800Z,17.87
2022-11-15T15:21:29.886Z,18.90
2022-11-15T15:22:36.227Z,18.87
2022-11-15T15:23:38.448Z,19.03
2022-11-15T15:24:40.735Z,19.93
2022-11-15T15:25:43.247Z,19.33
2022-11-15T15:26:45.555Z,18.47
2022-11-15T15:27:47.883Z,20.60
2022-11-15T15:28:52.292Z,20.00
2022-11-15T15:29:54.551Z,20.83
2022-11-15T15:30:56.844Z,20.33
2022-11-15T15:32:01.302Z,20.33
2022-11-15T15:33:03.566Z,19.40
2022-11-15T15:34:05.870Z,20.07
2022-11-15T15:35:14.006Z,20.93
2022-11-15T15:36:19.461Z,20.83
2022-11-15T15:37:27.173Z,20.03
2022-11-15T15:38:32.258Z,20.37
2022-11-15T15:39:34.567Z,20.03
2022-11-15T15:40:36.956Z,19.13
2022-11-15T15:41:39.294Z,20.87
2022-11-15T15:42:41.642Z,21.07
2022-11-15T15:43:45.371Z,20.63
2022-11-15T15:44:48.998Z,18.83
2022-11-15T15:45:51.261Z,19.40
2022-11-15T15:46:53.693Z,19.67
2022-11-15T15:47:56.357Z,20.63
2022-11-15T15:48:58.611Z,21.13
2022-11-15T15:50:00.946Z,20.80
2022-11-15T15:51:07.385Z,21.13
2022-11-15T15:52:15.495Z,20.03
2022-11-15T15:53:18.452Z,21.40
2022-11-15T15:54:20.747Z,22.73
2022-11-15T15:55:23.925Z,20.60
2022-11-15T15:56:26.284Z,19.53
2022-11-15T15:57:28.597Z,19.80
2022-11-15T15:58:31.328Z,21.60
2022-11-15T15:59:33.940Z,19.70
2022-11-15T16:00:36.894Z,22.07
2022-11-15T16:01:39.094Z,19.40
2022-11-15T16:02:42.032Z,22.07
2022-11-15T16:03:44.285Z,22.33
2022-11-15T16:04:46.529Z,21.53
2022-11-15T16:05:51.501Z,21.10
2022-11-15T16:07:03.915Z,23.17
2022-11-15T16:08:06.280Z,21.10
2022-11-15T16:09:15.845Z,22.70
2022-11-15T16:10:21.413Z,22.53
2022-11-15T16:11:23.767Z,20.87
2022-11-15T16:12:26.210Z,21.03
2022-11-15T16:13:28.440Z,21.83
2022-11-15T16:14:32.917Z,20.97
2022-11-15T16:15:36.271Z,21.03
2022-11-15T16:16:39.226Z,21.73
2022-11-15T16:17:56.342Z,21.33
2022-11-15T16:18:58.517Z,20.80
2022-11-15T16:20:01.046Z,20.77
2022-11-15T16:21:03.369Z,23.17
2022-11-15T16:22:05.644Z,21.97
2022-11-15T16:23:12.126Z,24.63
2022-11-15T16:24:14.382Z,25.83
2022-11-15T16:25:16.665Z,24.23
2022-11-15T16:26:27.499Z,25.00
2022-11-15T16:27:29.794Z,25.10
2022-11-15T16:28:34.096Z,24.63
2022-11-15T16:29:36.582Z,22.73
2022-11-15T16:30:39.300Z,24.40
2022-11-15T16:31:41.547Z,21.93
2022-11-15T16:32:43.899Z,23.53
2022-11-15T16:33:49.127Z,23.27
2022-11-15T16:34:51.405Z,25.80
2022-11-15T16:35:53.843Z,22.57